Terminal Aerodrome Forecast
Issued by NWS

Home | Current Version | Previous Version | Text Only | Print | Product List | Glossary On
Versions: 1 2 3 4 5 6 7 8 9 10 11 12 13 14 15 16 17
918
FTUS43 KICT 230520
TAFCNU
TAF
KCNU 230520Z 2306/2406 08004KT 5SM BR VCSH SCT002 OVC060
      TEMPO 2306/2308 1SM BR BKN002
     FM230900 VRB03KT P6SM VCSH OVC035
     FM231200 31006KT P6SM BKN050
     FM231600 34009KT P6SM VCSH BKN040
     FM232100 33012KT P6SM BKN090=

USA.gov is the U.S. government's official web portal to all federal, state and local government web resources and services.